47PA weather

Homan Airport
State College, Pennsylvania, United States

Public forecast

Using degrees Fahrenheit for public forecast. Weather courtesy of forecast.io.

METAR (pilot weather report)

Closest report is University Park Airport, 10.0 nm (18.6 km) NE. Retrieved 2019/05/22 17:53 UTC (15 minutes ago):

KUNV 221753Z 21007KT 10SM SKC 19/06 A3024

TAF (pilot weather forecast)

Closest forecast is University Park Airport, 10.0 nm (18.6 km) NE. Retrieved 2019/05/22 18:30 UTC (0 seconds ago):

TAF KUNV 221726Z 2218/2318 20007KT P6SM SCT080 BKN250 FM230500 18005KT P6SM -SHRA OVC050 FM231600 24011G18KT P6SM BKN050